createdAt,value
2018-05-01T00:01:38.687Z,12.80
2018-05-01T00:04:06.894Z,12.80
2018-05-01T00:06:34.322Z,12.80
2018-05-01T00:09:02.535Z,12.70
2018-05-01T00:11:29.965Z,12.70
2018-05-01T00:13:57.411Z,12.60
2018-05-01T00:16:25.602Z,12.60
2018-05-01T00:18:53.040Z,12.60
2018-05-01T00:21:21.253Z,12.50
2018-05-01T00:23:48.695Z,12.50
2018-05-01T00:26:16.122Z,12.50
2018-05-01T00:28:44.330Z,12.50
2018-05-01T00:31:11.749Z,12.50
2018-05-01T00:33:39.966Z,12.50
2018-05-01T00:36:07.399Z,12.50
2018-05-01T00:38:34.838Z,12.50
2018-05-01T00:41:03.048Z,12.50
2018-05-01T00:43:30.476Z,12.50
2018-05-01T00:45:58.674Z,12.40
2018-05-01T00:48:26.106Z,12.40
2018-05-01T00:50:54.308Z,12.30
2018-05-01T00:53:21.750Z,12.40
2018-05-01T00:55:49.170Z,12.30
2018-05-01T00:58:16.607Z,12.30
2018-05-01T01:00:44.039Z,12.30
2018-05-01T01:03:11.492Z,12.30
2018-05-01T01:05:38.909Z,12.20
2018-05-01T01:08:07.127Z,12.30
2018-05-01T01:10:34.575Z,12.20
2018-05-01T01:13:01.994Z,12.30
2018-05-01T01:15:30.198Z,12.30
2018-05-01T01:17:57.622Z,12.20
2018-05-01T01:20:25.837Z,12.20
2018-05-01T01:22:53.264Z,12.20
2018-05-01T01:25:20.704Z,12.20
2018-05-01T01:27:48.903Z,12.10
2018-05-01T01:30:16.338Z,12.10
2018-05-01T01:32:44.550Z,12.10
2018-05-01T01:35:11.503Z,12.10
2018-05-01T01:37:38.449Z,12.00
2018-05-01T01:40:05.404Z,12.00
2018-05-01T01:42:32.349Z,12.00
2018-05-01T01:44:59.298Z,12.00
2018-05-01T01:47:26.253Z,12.00
2018-05-01T01:49:53.197Z,12.00
2018-05-01T01:52:20.134Z,12.00
2018-05-01T01:54:47.092Z,12.00
2018-05-01T01:57:14.034Z,12.00
2018-05-01T01:59:40.979Z,12.00
2018-05-01T02:02:07.931Z,12.00
2018-05-01T02:04:34.875Z,12.00
2018-05-01T02:07:01.810Z,12.00
2018-05-01T02:09:28.756Z,11.90
2018-05-01T02:11:55.695Z,12.00
2018-05-01T02:14:22.644Z,11.90
2018-05-01T02:16:49.611Z,11.80
2018-05-01T02:19:16.546Z,11.70
2018-05-01T02:21:43.486Z,11.70
2018-05-01T02:24:10.426Z,11.50
2018-05-01T02:26:37.367Z,11.40
2018-05-01T02:29:04.301Z,11.30
2018-05-01T02:31:31.246Z,11.20
2018-05-01T02:33:58.195Z,11.10
2018-05-01T02:36:25.139Z,11.00
2018-05-01T02:38:52.084Z,11.00
2018-05-01T02:41:19.094Z,10.90
2018-05-01T02:43:45.966Z,10.90
2018-05-01T02:46:12.917Z,10.80
2018-05-01T02:48:39.853Z,10.80
2018-05-01T02:51:06.804Z,10.80
2018-05-01T02:53:33.744Z,10.70
2018-05-01T02:56:00.688Z,10.60
2018-05-01T02:58:27.635Z,10.40
2018-05-01T03:00:54.575Z,10.40
2018-05-01T03:03:21.531Z,10.40
2018-05-01T03:05:48.470Z,10.30
2018-05-01T03:08:15.411Z,10.30
2018-05-01T03:10:42.352Z,10.30
2018-05-01T03:13:09.293Z,10.30
2018-05-01T03:15:36.238Z,10.30
2018-05-01T03:18:03.178Z,10.10
2018-05-01T03:20:30.121Z,10.20
2018-05-01T03:22:57.062Z,10.10
2018-05-01T03:25:24.053Z,10.10
2018-05-01T03:27:50.964Z,10.10
2018-05-01T03:30:17.907Z,10.10
2018-05-01T03:32:44.846Z,10.10
2018-05-01T03:35:11.795Z,10.10
2018-05-01T03:37:38.739Z,9.90
2018-05-01T03:40:05.682Z,9.90
2018-05-01T03:42:32.624Z,9.80
2018-05-01T03:44:59.571Z,9.90
2018-05-01T03:47:26.503Z,9.90
2018-05-01T03:49:53.445Z,9.90
2018-05-01T03:52:20.394Z,9.90
2018-05-01T03:54:47.335Z,9.80
2018-05-01T03:57:14.271Z,9.80
2018-05-01T03:59:41.214Z,9.80
2018-05-01T04:02:08.170Z,9.80
2018-05-01T04:04:35.116Z,9.80
2018-05-01T04:07:02.819Z,9.80
2018-05-01T04:09:30.575Z,9.80
2018-05-01T04:11:57.519Z,9.80
2018-05-01T04:14:24.452Z,9.80
2018-05-01T04:16:51.390Z,9.70
2018-05-01T04:19:18.327Z,9.70
2018-05-01T04:21:45.269Z,9.70
2018-05-01T04:24:12.210Z,9.70
2018-05-01T04:26:39.150Z,9.70
2018-05-01T04:29:06.091Z,9.60
2018-05-01T04:31:33.037Z,9.70
2018-05-01T04:33:59.982Z,9.70
2018-05-01T04:36:26.937Z,9.80
2018-05-01T04:38:53.888Z,9.80
2018-05-01T04:41:20.829Z,9.70
2018-05-01T04:43:47.765Z,9.70
2018-05-01T04:46:14.714Z,9.60
2018-05-01T04:48:41.658Z,9.60
2018-05-01T04:51:08.598Z,9.60
2018-05-01T04:53:35.534Z,9.60
2018-05-01T04:56:02.474Z,9.40
2018-05-01T04:58:29.469Z,9.40
2018-05-01T05:00:57.503Z,9.30
2018-05-01T05:03:24.438Z,9.40
2018-05-01T05:05:51.383Z,9.40
2018-05-01T05:08:18.326Z,9.30
2018-05-01T05:10:45.258Z,9.30
2018-05-01T05:13:12.202Z,9.30
2018-05-01T05:15:39.241Z,9.20
2018-05-01T05:18:06.130Z,9.20
2018-05-01T05:20:33.062Z,9.10
2018-05-01T05:23:00.003Z,9.10
2018-05-01T05:25:26.936Z,9.10
2018-05-01T05:27:53.882Z,9.10
2018-05-01T05:30:20.824Z,9.00
2018-05-01T05:32:47.767Z,8.90
2018-05-01T05:35:14.696Z,8.90
2018-05-01T05:37:41.626Z,8.90
2018-05-01T05:40:08.562Z,8.80
2018-05-01T05:42:35.506Z,9.00
2018-05-01T05:45:02.459Z,8.90
2018-05-01T05:47:29.422Z,8.90
2018-05-01T05:49:56.327Z,8.70
2018-05-01T05:52:24.114Z,8.90
2018-05-01T05:54:51.065Z,8.90
2018-05-01T05:57:18.084Z,8.70
2018-05-01T05:59:45.868Z,8.70
2018-05-01T06:02:12.858Z,8.60
2018-05-01T06:04:39.799Z,8.70
2018-05-01T06:07:06.739Z,8.70
2018-05-01T06:09:33.676Z,8.80
2018-05-01T06:12:00.618Z,8.80
2018-05-01T06:14:27.551Z,8.90
2018-05-01T06:16:54.493Z,8.90
2018-05-01T06:19:21.438Z,9.20
2018-05-01T06:21:48.405Z,9.40
2018-05-01T06:24:15.323Z,9.40
2018-05-01T06:26:42.266Z,9.30
2018-05-01T06:29:09.201Z,9.30
2018-05-01T06:31:36.149Z,9.30
2018-05-01T06:34:03.078Z,9.20
2018-05-01T06:36:30.021Z,9.10
2018-05-01T06:38:56.946Z,9.10
2018-05-01T06:41:24.651Z,9.10
2018-05-01T06:43:51.631Z,9.10
2018-05-01T06:46:18.521Z,9.10
2018-05-01T06:48:45.449Z,9.10
2018-05-01T06:51:13.146Z,9.20
2018-05-01T06:53:40.101Z,9.30
2018-05-01T06:56:07.042Z,9.20
2018-05-01T06:58:33.981Z,9.10
2018-05-01T07:01:00.910Z,9.20
2018-05-01T07:03:27.850Z,9.20
2018-05-01T07:05:54.784Z,9.30
2018-05-01T07:08:22.484Z,9.00
2018-05-01T07:10:49.426Z,9.00
2018-05-01T07:13:16.367Z,9.00
2018-05-01T07:15:43.314Z,9.10
2018-05-01T07:18:10.251Z,9.10
2018-05-01T07:20:37.193Z,8.90
2018-05-01T07:23:04.151Z,9.00
2018-05-01T07:25:31.083Z,8.90
2018-05-01T07:27:58.030Z,9.00
2018-05-01T07:30:24.950Z,9.20
2018-05-01T07:32:51.892Z,9.20
2018-05-01T07:35:18.822Z,9.50
2018-05-01T07:37:46.537Z,9.40
2018-05-01T07:40:13.465Z,9.30
2018-05-01T07:42:40.412Z,9.60
2018-05-01T07:45:07.353Z,9.50
2018-05-01T07:47:34.297Z,9.30
2018-05-01T07:50:01.242Z,9.60
2018-05-01T07:52:28.175Z,9.60
2018-05-01T07:54:55.111Z,9.70
2018-05-01T07:57:22.117Z,9.80
2018-05-01T07:59:49.050Z,10.00
2018-05-01T08:02:15.990Z,10.10
2018-05-01T08:04:42.935Z,10.10
2018-05-01T08:07:11.786Z,10.00
2018-05-01T08:09:38.719Z,9.90
2018-05-01T08:12:05.706Z,10.00
2018-05-01T08:14:32.614Z,10.00
2018-05-01T08:16:59.558Z,10.10
2018-05-01T08:19:26.505Z,10.30
2018-05-01T08:21:53.435Z,10.30
2018-05-01T08:24:20.407Z,10.50
2018-05-01T08:26:47.346Z,10.70
2018-05-01T08:29:14.293Z,10.70
2018-05-01T08:31:41.229Z,11.10
2018-05-01T08:34:08.170Z,11.00
2018-05-01T08:36:35.107Z,11.10
2018-05-01T08:39:02.076Z,10.90
2018-05-01T08:41:29.022Z,11.20
2018-05-01T08:43:55.982Z,10.70
2018-05-01T08:46:22.927Z,10.50
2018-05-01T08:48:49.879Z,11.10
2018-05-01T08:51:16.818Z,11.20
2018-05-01T08:53:43.757Z,11.00
2018-05-01T08:56:10.702Z,11.30
2018-05-01T08:58:37.671Z,11.50
2018-05-01T09:01:04.602Z,11.50
2018-05-01T09:03:31.547Z,11.80
2018-05-01T09:05:58.494Z,11.30
2018-05-01T09:08:25.450Z,11.30
2018-05-01T09:10:52.379Z,11.20
2018-05-01T09:13:19.334Z,11.40
2018-05-01T09:15:46.272Z,11.60
2018-05-01T09:18:13.385Z,11.40
2018-05-01T09:20:40.153Z,11.40
2018-05-01T09:23:07.098Z,11.30
2018-05-01T09:25:34.096Z,11.40
2018-05-01T09:28:00.996Z,11.20
2018-05-01T09:30:39.042Z,10.90
2018-05-01T09:33:05.983Z,11.60
2018-05-01T09:35:33.695Z,11.80
2018-05-01T09:38:00.655Z,11.80
2018-05-01T09:40:27.586Z,10.50
2018-05-01T09:42:54.542Z,10.50
2018-05-01T09:45:21.479Z,11.10
2018-05-01T09:48:06.100Z,10.80
2018-05-01T09:50:33.042Z,10.40
2018-05-01T09:53:00.490Z,10.50
2018-05-01T09:55:27.919Z,10.50
2018-05-01T09:57:55.353Z,10.50
2018-05-01T10:00:24.708Z,11.00
2018-05-01T10:02:52.132Z,11.10
2018-05-01T10:05:19.568Z,11.40
2018-05-01T10:07:47.002Z,11.20
2018-05-01T10:10:14.431Z,12.10
2018-05-01T10:12:41.859Z,12.20
2018-05-01T10:15:10.076Z,12.70
2018-05-01T10:17:37.506Z,12.70
2018-05-01T10:20:04.934Z,12.90
2018-05-01T10:22:32.366Z,12.90
2018-05-01T10:24:59.798Z,12.80
2018-05-01T10:27:27.222Z,12.50
2018-05-01T10:29:55.427Z,13.00
2018-05-01T10:32:22.855Z,12.90
2018-05-01T10:34:51.057Z,12.80
2018-05-01T10:37:18.483Z,13.10
2018-05-01T10:39:46.699Z,13.50
2018-05-01T10:42:14.123Z,13.50
2018-05-01T10:44:41.559Z,14.10
2018-05-01T10:47:08.988Z,13.90
2018-05-01T10:49:36.426Z,13.70
2018-05-01T10:52:03.865Z,13.80
2018-05-01T10:54:31.307Z,13.80
2018-05-01T10:56:58.738Z,14.50
2018-05-01T10:59:26.959Z,13.40
2018-05-01T11:01:54.374Z,13.40
2018-05-01T11:04:22.596Z,15.90
2018-05-01T11:06:49.991Z,15.80
2018-05-01T11:09:17.422Z,17.00
2018-05-01T11:11:44.851Z,16.70
2018-05-01T11:14:12.290Z,16.00
2018-05-01T11:16:39.720Z,15.80
2018-05-01T11:19:07.982Z,16.30
2018-05-01T11:21:35.409Z,16.30
2018-05-01T11:24:02.898Z,16.70
2018-05-01T11:26:30.318Z,16.60
2018-05-01T11:28:57.742Z,16.80
2018-05-01T11:31:25.171Z,16.90
2018-05-01T11:33:52.598Z,17.20
2018-05-01T11:36:20.048Z,17.80
2018-05-01T11:38:47.480Z,17.40
2018-05-01T11:41:14.914Z,17.20
2018-05-01T11:43:42.342Z,17.20
2018-05-01T11:46:09.787Z,16.30
2018-05-01T11:48:37.210Z,16.80
2018-05-01T11:51:04.647Z,16.20
2018-05-01T11:53:32.071Z,16.00
2018-05-01T11:55:59.507Z,16.00
2018-05-01T11:58:26.926Z,15.90
2018-05-01T12:00:54.356Z,16.00
2018-05-01T12:03:21.773Z,16.20
2018-05-01T12:05:49.221Z,16.00
2018-05-01T12:08:16.649Z,16.30
2018-05-01T12:10:44.078Z,16.70
2018-05-01T12:13:11.511Z,16.60
2018-05-01T12:15:38.939Z,16.70
2018-05-01T12:18:06.367Z,16.70
2018-05-01T12:20:33.790Z,16.40
2018-05-01T12:23:01.987Z,15.70
2018-05-01T12:25:29.419Z,15.70
2018-05-01T12:27:57.625Z,17.20
2018-05-01T12:30:25.055Z,17.20
2018-05-01T12:32:53.246Z,16.90
2018-05-01T12:35:20.675Z,16.90
2018-05-01T12:37:48.876Z,18.40
2018-05-01T12:40:16.307Z,18.40
2018-05-01T12:42:44.495Z,18.10
2018-05-01T12:45:11.922Z,18.00
2018-05-01T12:47:40.114Z,17.40
2018-05-01T12:50:07.542Z,17.40
2018-05-01T12:52:34.979Z,17.80
2018-05-01T12:55:02.428Z,17.90
2018-05-01T12:57:29.850Z,17.80
2018-05-01T12:59:58.042Z,17.10
2018-05-01T13:02:25.478Z,17.10
2018-05-01T13:04:53.662Z,16.90
2018-05-01T13:07:21.090Z,16.90
2018-05-01T13:09:48.518Z,17.10
2018-05-01T13:12:15.987Z,17.30
2018-05-01T13:14:43.387Z,17.30
2018-05-01T13:17:10.818Z,17.60
2018-05-01T13:19:38.246Z,17.70
2018-05-01T13:22:05.678Z,17.80
2018-05-01T13:24:33.115Z,17.60
2018-05-01T13:27:00.541Z,17.20
2018-05-01T13:29:28.734Z,17.50
2018-05-01T13:31:56.171Z,17.40
2018-05-01T13:34:23.641Z,17.80
2018-05-01T13:36:51.089Z,17.30
2018-05-01T13:39:19.296Z,16.60
2018-05-01T13:41:46.721Z,16.60
2018-05-01T13:44:14.926Z,15.60
2018-05-01T13:46:42.507Z,15.50
2018-05-01T13:49:09.939Z,15.90
2018-05-01T13:51:37.370Z,15.80
2018-05-01T13:54:05.572Z,15.80
2018-05-01T13:56:33.002Z,15.40
2018-05-01T13:59:01.202Z,15.20
2018-05-01T14:01:28.643Z,15.20
2018-05-01T14:03:57.563Z,15.10
2018-05-01T14:06:25.047Z,15.10
2018-05-01T14:08:52.430Z,15.40
2018-05-01T14:11:19.862Z,16.00
2018-05-01T14:13:47.294Z,16.50
2018-05-01T14:16:14.740Z,16.70
2018-05-01T14:18:42.162Z,16.50
2018-05-01T14:21:10.382Z,15.40
2018-05-01T14:23:37.820Z,15.40
2018-05-01T14:26:05.238Z,15.10
2018-05-01T14:28:32.676Z,15.10
2018-05-01T14:31:00.114Z,15.40
2018-05-01T14:33:27.552Z,15.20
2018-05-01T14:35:54.978Z,15.20
2018-05-01T14:38:22.411Z,15.50
2018-05-01T14:40:49.847Z,15.50
2018-05-01T14:43:17.290Z,15.90
2018-05-01T14:45:44.734Z,15.40
2018-05-01T14:48:12.170Z,15.60
2018-05-01T14:50:39.651Z,15.70
2018-05-01T14:53:07.100Z,15.20
2018-05-01T14:55:34.527Z,14.80
2018-05-01T14:58:02.738Z,15.40
2018-05-01T15:00:30.183Z,15.40
2018-05-01T15:03:04.427Z,15.80
2018-05-01T15:05:31.862Z,15.80
2018-05-01T15:07:59.310Z,15.80
2018-05-01T15:10:26.745Z,15.70
2018-05-01T15:12:54.179Z,15.30
2018-05-01T15:15:22.383Z,15.90
2018-05-01T15:17:49.826Z,15.80
2018-05-01T15:20:18.018Z,15.70
2018-05-01T15:22:45.632Z,15.70
2018-05-01T15:25:13.068Z,15.80
2018-05-01T15:27:40.516Z,15.60
2018-05-01T15:30:08.076Z,15.50
2018-05-01T15:32:35.386Z,15.30
2018-05-01T15:35:03.585Z,15.70
2018-05-01T15:37:31.023Z,15.70
2018-05-01T15:39:59.221Z,15.60
2018-05-01T15:42:26.660Z,15.60
2018-05-01T15:44:54.083Z,15.00
2018-05-01T15:47:21.521Z,15.10
2018-05-01T15:49:48.967Z,15.10
2018-05-01T15:52:16.390Z,15.00
2018-05-01T15:54:43.829Z,15.00
2018-05-01T15:57:12.023Z,15.00
2018-05-01T15:59:39.463Z,15.00
2018-05-01T16:02:07.661Z,14.80
2018-05-01T16:04:35.093Z,14.80
2018-05-01T16:07:03.282Z,15.30
2018-05-01T16:09:30.717Z,15.50
2018-05-01T16:11:58.929Z,15.30
2018-05-01T16:14:26.387Z,15.30
2018-05-01T16:16:54.154Z,15.30
2018-05-01T16:19:21.573Z,15.10
2018-05-01T16:21:49.783Z,14.70
2018-05-01T16:24:17.226Z,14.50
2018-05-01T16:26:44.649Z,14.60
2018-05-01T16:29:12.871Z,14.90
2018-05-01T16:31:40.294Z,14.90
2018-05-01T16:34:08.592Z,14.50
2018-05-01T16:36:35.935Z,14.40
2018-05-01T16:39:03.375Z,14.40
2018-05-01T16:41:31.582Z,14.40
2018-05-01T16:43:59.005Z,14.40
2018-05-01T16:46:27.206Z,14.00
2018-05-01T16:48:54.638Z,14.00
2018-05-01T16:51:22.834Z,14.00
2018-05-01T16:53:50.270Z,14.00
2018-05-01T16:56:18.475Z,14.00
2018-05-01T16:58:45.915Z,14.00
2018-05-01T17:01:13.343Z,14.10
2018-05-01T17:03:40.785Z,14.10
2018-05-01T17:06:08.210Z,14.10
2018-05-01T17:08:35.654Z,14.20
2018-05-01T17:11:03.094Z,14.10
2018-05-01T17:13:30.531Z,14.10
2018-05-01T17:15:58.735Z,14.00
2018-05-01T17:18:26.179Z,14.00
2018-05-01T17:20:53.611Z,14.00
2018-05-01T17:23:21.066Z,14.10
2018-05-01T17:25:49.271Z,14.10
2018-05-01T17:28:16.701Z,14.10
2018-05-01T17:30:44.914Z,14.00
2018-05-01T17:33:12.362Z,14.00
2018-05-01T17:35:39.782Z,14.00
2018-05-01T17:38:07.991Z,14.00
2018-05-01T17:40:35.431Z,13.90
2018-05-01T17:43:02.871Z,13.90
2018-05-01T17:45:31.084Z,13.70
2018-05-01T17:47:58.521Z,13.70
2018-05-01T17:50:25.966Z,13.70
2018-05-01T17:52:54.173Z,13.40
2018-05-01T17:55:21.606Z,13.40
2018-05-01T17:57:49.053Z,13.30
2018-05-01T18:00:17.258Z,13.20
2018-05-01T18:02:44.682Z,13.20
2018-05-01T18:05:12.123Z,13.10
2018-05-01T18:07:40.340Z,12.90
2018-05-01T18:10:07.774Z,12.90
2018-05-01T18:12:35.304Z,12.90
2018-05-01T18:15:03.426Z,12.70
2018-05-01T18:17:30.862Z,12.70
2018-05-01T18:19:58.297Z,12.70
2018-05-01T18:22:26.506Z,12.60
2018-05-01T18:24:53.944Z,12.50
2018-05-01T18:27:21.399Z,12.50
2018-05-01T18:29:48.875Z,12.50
2018-05-01T18:32:16.306Z,12.40
2018-05-01T18:34:44.520Z,12.20
2018-05-01T18:37:11.954Z,12.10
2018-05-01T18:39:39.392Z,12.00
2018-05-01T18:42:07.598Z,12.00
2018-05-01T18:44:35.039Z,11.90
2018-05-01T18:47:02.463Z,11.80
2018-05-01T18:49:30.677Z,11.70
2018-05-01T18:51:58.097Z,11.70
2018-05-01T18:54:26.325Z,11.60
2018-05-01T18:56:53.754Z,11.50
2018-05-01T18:59:21.198Z,11.40
2018-05-01T19:01:48.634Z,11.40
2018-05-01T19:04:16.852Z,11.30
2018-05-01T19:06:44.267Z,11.20
2018-05-01T19:09:12.484Z,11.20
2018-05-01T19:11:39.915Z,11.10
2018-05-01T19:14:07.347Z,11.10
2018-05-01T19:16:34.788Z,11.10
2018-05-01T19:19:02.219Z,11.20
2018-05-01T19:21:29.673Z,11.10
2018-05-01T19:23:57.114Z,11.10
2018-05-01T19:26:24.541Z,11.00
2018-05-01T19:28:53.102Z,10.70
2018-05-01T19:31:20.558Z,10.70
2018-05-01T19:33:48.054Z,10.70
2018-05-01T19:36:15.502Z,10.00
2018-05-01T19:38:43.708Z,10.00
2018-05-01T19:41:11.187Z,10.00
2018-05-01T19:43:38.590Z,9.90
2018-05-01T19:46:06.798Z,9.80
2018-05-01T19:48:34.230Z,9.80
2018-05-01T19:51:01.804Z,9.90
2018-05-01T19:53:29.124Z,9.90
2018-05-01T19:55:57.338Z,9.80
2018-05-01T19:58:24.799Z,9.80
2018-05-01T20:00:52.230Z,9.70
2018-05-01T20:03:19.742Z,9.70
2018-05-01T20:05:47.087Z,9.40
2018-05-01T20:08:14.530Z,9.30
2018-05-01T20:10:41.974Z,9.20
2018-05-01T20:13:09.390Z,9.20
2018-05-01T20:15:36.938Z,8.90
2018-05-01T20:18:04.504Z,8.70
2018-05-01T20:20:31.974Z,8.80
2018-05-01T20:22:59.364Z,8.70
2018-05-01T20:25:26.782Z,8.70
2018-05-01T20:27:55.625Z,8.60
2018-05-01T20:30:23.881Z,8.60
2018-05-01T20:32:51.248Z,8.60
2018-05-01T20:35:18.687Z,8.50
2018-05-01T20:37:46.142Z,8.50
2018-05-01T20:40:13.576Z,8.40
2018-05-01T20:42:41.004Z,8.30
2018-05-01T20:45:08.419Z,8.30
2018-05-01T20:47:35.862Z,8.10
2018-05-01T20:50:03.278Z,8.10
2018-05-01T20:52:30.709Z,8.10
2018-05-01T20:54:58.137Z,8.00
2018-05-01T20:57:25.572Z,8.00
2018-05-01T20:59:53.006Z,8.00
2018-05-01T21:02:21.215Z,7.80
2018-05-01T21:04:48.645Z,7.70
2018-05-01T21:07:16.845Z,7.70
2018-05-01T21:09:44.266Z,7.70
2018-05-01T21:12:12.477Z,7.70
2018-05-01T21:14:39.902Z,7.60
2018-05-01T21:17:08.175Z,7.60
2018-05-01T21:19:36.384Z,7.50
2018-05-01T21:22:03.826Z,7.30
2018-05-01T21:24:31.239Z,7.30
2018-05-01T21:26:58.687Z,7.20
2018-05-01T21:29:26.150Z,7.10
2018-05-01T21:31:53.590Z,7.00
2018-05-01T21:34:21.019Z,7.10
2018-05-01T21:36:48.451Z,7.00
2018-05-01T21:39:15.898Z,7.00
2018-05-01T21:41:43.330Z,7.00
2018-05-01T21:44:10.759Z,6.90
2018-05-01T21:46:38.181Z,6.90
2018-05-01T21:49:05.622Z,6.90
2018-05-01T21:51:33.826Z,6.80
2018-05-01T21:54:01.253Z,6.80
2018-05-01T21:56:28.674Z,6.80
2018-05-01T21:58:56.107Z,6.70
2018-05-01T22:01:23.547Z,6.70
2018-05-01T22:03:50.987Z,6.70
2018-05-01T22:06:18.409Z,6.60
2018-05-01T22:08:46.611Z,6.50
2018-05-01T22:11:14.035Z,6.50
2018-05-01T22:13:41.471Z,6.40
2018-05-01T22:16:08.886Z,6.40
2018-05-01T22:18:36.315Z,6.40
2018-05-01T22:21:03.747Z,6.50
2018-05-01T22:23:31.173Z,6.50
2018-05-01T22:25:59.370Z,6.50
2018-05-01T22:28:26.847Z,6.50
2018-05-01T22:30:54.274Z,6.50
2018-05-01T22:33:21.701Z,6.40
2018-05-01T22:35:49.126Z,6.20
2018-05-01T22:38:17.318Z,6.10
2018-05-01T22:40:45.600Z,6.10
2018-05-01T22:43:12.946Z,6.00
2018-05-01T22:45:41.134Z,6.00
2018-05-01T22:48:08.565Z,6.00
2018-05-01T22:50:35.990Z,6.10
2018-05-01T22:53:03.426Z,6.20
2018-05-01T22:55:30.849Z,6.20
2018-05-01T22:57:58.287Z,6.30
2018-05-01T23:00:25.714Z,6.40
2018-05-01T23:02:53.146Z,6.50
2018-05-01T23:05:20.567Z,6.40
2018-05-01T23:07:47.992Z,6.20
2018-05-01T23:10:15.431Z,6.10
2018-05-01T23:12:42.858Z,5.90
2018-05-01T23:15:10.279Z,5.70
2018-05-01T23:17:38.469Z,5.80
2018-05-01T23:20:05.894Z,5.70
2018-05-01T23:22:33.331Z,5.70
2018-05-01T23:25:00.774Z,5.60
2018-05-01T23:27:28.191Z,5.70
2018-05-01T23:29:55.617Z,5.70
2018-05-01T23:32:23.051Z,5.70
2018-05-01T23:34:50.482Z,5.70
2018-05-01T23:37:17.906Z,5.60
2018-05-01T23:39:46.108Z,5.70
2018-05-01T23:42:13.535Z,5.70
2018-05-01T23:44:40.964Z,5.70
2018-05-01T23:47:08.393Z,5.70
2018-05-01T23:49:35.813Z,5.70
2018-05-01T23:52:04.012Z,5.60
2018-05-01T23:54:31.442Z,5.50
2018-05-01T23:56:59.643Z,5.60
2018-05-01T23:59:27.070Z,5.60
